Haysville, KS (67060)

8:11 AM CDT on October 01, 2016 (GMT -0500)
Suncrest | | Change Station

Elev 1259 ft 37.54 °N, 97.37 °W | Updated 7 seconds ago

Clear
Clear
52.8 °F
Feels Like 52.8 °F
N
0.0
Wind Variable Wind from SW

Today
High -- | Low -- °F
--% Chance of Precip.
Yesterday
High -- | Low -- °F
Precip. -- in
Pressure 30.12 in
Visibility 10.0 miles
Clouds Clear
Dew Point 51 °F
Humidity 96%
Rainfall 0.00 in
Snow Depth Not available.
7:25 AM 7:11 PM
New Moon, 0% visible
METAR KIAB 011258Z AUTO 00000KT 10SM CLR 14/10 A3012 RMK AO2 CIG 200 RWY19 SLP197 T01380100
Pressure 30.12 in
Visibility 10.0 miles
Clouds Clear
Dew Point 51 °F
Humidity 96%
Rainfall 0.00 in
Snow Depth Not available.
7:25 AM 7:11 PM
New Moon, 0% visible
METAR KIAB 011258Z AUTO 00000KT 10SM CLR 14/10 A3012 RMK AO2 CIG 200 RWY19 SLP197 T01380100

10-Day Weather Forecast

Almanac

Astronomy

Oct. 01, 2016 Rise Set
Actual Time
Civil Twilight
Nautical Twilight
Astronomical Twilight
Moon
Length of Visible Light
Length of Day
Tomorrow will be .
, % of the Moon is Illuminated

Today's Extremes

State Highs State Lows

Community

WunderPhotos

Upload Photos

1,942,929 photos uploaded!

WunderBlog® & News

Nearby

Air Quality

  Air Quality AQ Index Pollutant
Not available.

Snow Depth

Station Depth Elevation

Earthquake Activity

City Distance Mag. Time & Date
Minimum magnitude displayed is 2.5.

Coastal Water Temperatures

Place Temperature

Stations

Nearby Weather Stations

Station Location Temp. Windchill Dew Point Humidity Wind Precip. Elev Updated Type
                   

Watches & Warnings

There are currently no watches in effect.